createdAt,value
2022-10-26T00:01:13.252Z,17.13
2022-10-26T00:06:19.249Z,17.27
2022-10-26T00:11:24.361Z,17.02
2022-10-26T00:16:30.586Z,16.87
2022-10-26T00:21:33.001Z,16.78
2022-10-26T00:26:33.530Z,16.69
2022-10-26T00:31:34.827Z,16.82
2022-10-26T00:36:38.711Z,16.85
2022-10-26T00:41:38.405Z,16.69
2022-10-26T00:46:41.087Z,16.80
2022-10-26T00:51:54.215Z,16.68
2022-10-26T00:56:57.365Z,16.63
2022-10-26T01:01:57.642Z,16.71
2022-10-26T01:06:58.921Z,16.57
2022-10-26T01:12:01.509Z,16.35
2022-10-26T01:17:06.921Z,16.59
2022-10-26T01:22:57.530Z,16.58
2022-10-26T01:28:36.345Z,16.14
2022-10-26T01:39:22.760Z,16.33
2022-10-26T01:44:46.523Z,16.46
2022-10-26T01:49:58.685Z,16.43
2022-10-26T01:55:41.279Z,16.45
2022-10-26T02:00:47.504Z,16.29
2022-10-26T02:06:13.710Z,16.21
2022-10-26T02:11:33.714Z,16.27
2022-10-26T02:16:44.201Z,16.10
2022-10-26T02:21:51.005Z,16.09
2022-10-26T02:26:53.422Z,15.91
2022-10-26T02:31:56.054Z,15.97
2022-10-26T02:36:56.064Z,16.23
2022-10-26T02:41:56.215Z,16.02
2022-10-26T02:46:59.005Z,15.63
2022-10-26T02:52:06.801Z,15.77
2022-10-26T02:57:24.329Z,15.69
2022-10-26T03:02:29.498Z,15.48
2022-10-26T03:07:41.886Z,15.37
2022-10-26T03:12:43.315Z,15.56
2022-10-26T03:17:44.002Z,15.44
2022-10-26T03:22:50.246Z,15.52
2022-10-26T03:27:59.743Z,15.20
2022-10-26T03:32:58.005Z,15.16
2022-10-26T03:38:03.264Z,14.78
2022-10-26T03:43:02.453Z,14.63
2022-10-26T03:48:12.562Z,15.03
2022-10-26T03:53:38.764Z,14.94
2022-10-26T03:58:39.775Z,14.72
2022-10-26T04:03:44.649Z,14.96
2022-10-26T04:08:50.859Z,14.88
2022-10-26T04:13:51.953Z,14.72
2022-10-26T04:18:54.370Z,14.67
2022-10-26T04:23:59.534Z,14.59
2022-10-26T04:29:03.111Z,14.61
2022-10-26T04:34:05.212Z,14.93
2022-10-26T04:39:06.223Z,14.39
2022-10-26T04:44:09.345Z,14.41
2022-10-26T04:49:08.820Z,14.33
2022-10-26T04:54:08.359Z,14.28
2022-10-26T04:59:11.876Z,14.03
2022-10-26T05:04:21.875Z,14.20
2022-10-26T05:09:22.822Z,14.01
2022-10-26T05:14:25.998Z,13.98
2022-10-26T05:19:41.796Z,14.19
2022-10-26T05:24:56.836Z,14.31
2022-10-26T05:30:03.652Z,14.20
2022-10-26T05:35:05.617Z,14.12
2022-10-26T05:40:04.455Z,14.41
2022-10-26T05:45:10.244Z,14.28
2022-10-26T05:50:09.903Z,14.54
2022-10-26T05:55:19.785Z,14.33
2022-10-26T06:00:25.880Z,14.35
2022-10-26T06:05:30.604Z,14.44
2022-10-26T06:10:31.753Z,14.72
2022-10-26T06:15:41.180Z,14.62
2022-10-26T06:20:52.561Z,14.93
2022-10-26T06:26:27.918Z,15.03
2022-10-26T06:31:44.342Z,14.89
2022-10-26T06:36:51.654Z,15.15
2022-10-26T06:42:04.198Z,15.40
2022-10-26T06:47:43.429Z,15.50
2022-10-26T06:53:27.736Z,15.40
2022-10-26T06:58:46.779Z,15.60
2022-10-26T07:03:59.187Z,15.91
2022-10-26T07:09:03.669Z,15.83
2022-10-26T07:14:01.429Z,16.06
2022-10-26T07:19:14.691Z,16.23
2022-10-26T07:24:14.896Z,16.12
2022-10-26T07:29:21.867Z,16.25
2022-10-26T07:34:32.593Z,16.35
2022-10-26T07:39:36.600Z,16.30
2022-10-26T07:45:07.116Z,16.55
2022-10-26T07:50:16.399Z,16.36
2022-10-26T07:55:31.646Z,16.66
2022-10-26T08:00:47.965Z,16.66
2022-10-26T08:05:56.966Z,16.88
2022-10-26T08:11:02.722Z,16.79
2022-10-26T08:16:03.746Z,16.94
2022-10-26T08:21:15.611Z,17.09
2022-10-26T08:26:36.859Z,17.20
2022-10-26T08:31:35.984Z,17.25
2022-10-26T08:36:34.282Z,17.41
2022-10-26T08:41:57.738Z,17.74
2022-10-26T08:47:20.387Z,17.61
2022-10-26T08:52:20.058Z,18.06
2022-10-26T08:58:01.999Z,17.86
2022-10-26T09:03:09.170Z,18.06
2022-10-26T09:08:41.411Z,18.20
2022-10-26T09:13:58.894Z,18.40
2022-10-26T09:19:20.500Z,18.84
2022-10-26T09:24:33.143Z,18.74
2022-10-26T09:29:52.478Z,18.78
2022-10-26T09:40:28.768Z,19.02
2022-10-26T09:45:54.594Z,19.22
2022-10-26T09:51:06.335Z,19.26
2022-10-26T09:56:10.201Z,19.52
2022-10-26T10:01:42.634Z,19.70
2022-10-26T10:06:56.013Z,19.54
2022-10-26T10:12:12.824Z,19.76
2022-10-26T10:18:15.514Z,19.71
2022-10-26T10:24:15.919Z,19.83
2022-10-26T10:36:44.497Z,20.10
2022-10-26T10:42:12.007Z,20.44
2022-10-26T10:47:34.336Z,20.29
2022-10-26T10:53:27.442Z,20.47
2022-10-26T10:59:57.787Z,20.55
2022-10-26T11:05:40.251Z,20.66
2022-10-26T11:10:47.551Z,20.88
2022-10-26T11:16:03.572Z,20.96
2022-10-26T11:21:34.278Z,21.32
2022-10-26T11:27:19.229Z,21.22
2022-10-26T11:32:42.776Z,21.52
2022-10-26T11:38:45.554Z,21.58
2022-10-26T11:44:52.715Z,21.51
2022-10-26T11:50:12.201Z,21.46
2022-10-26T11:55:29.803Z,21.86
2022-10-26T12:00:30.807Z,21.63
2022-10-26T12:05:54.369Z,21.90
2022-10-26T12:11:17.513Z,22.14
2022-10-26T12:16:29.178Z,22.07
2022-10-26T12:21:32.173Z,22.00
2022-10-26T12:27:45.273Z,21.74
2022-10-26T12:32:30.810Z,22.14
2022-10-26T12:37:36.824Z,22.21
2022-10-26T12:42:48.143Z,22.04
2022-10-26T12:48:15.610Z,22.28
2022-10-26T12:53:42.881Z,22.20
2022-10-26T12:59:27.733Z,22.16
2022-10-26T13:05:39.472Z,22.45
2022-10-26T13:10:23.361Z,22.22
2022-10-26T13:15:22.881Z,22.49
2022-10-26T13:20:26.266Z,22.49
2022-10-26T13:25:29.554Z,22.33
2022-10-26T13:30:33.426Z,22.61
2022-10-26T13:35:33.470Z,22.44
2022-10-26T13:40:32.617Z,22.53
2022-10-26T13:45:41.416Z,22.08
2022-10-26T13:50:55.661Z,22.20
2022-10-26T13:56:05.033Z,22.36
2022-10-26T14:01:10.386Z,22.45
2022-10-26T14:06:33.209Z,22.24
2022-10-26T14:11:43.979Z,22.14
2022-10-26T14:16:48.590Z,22.10
2022-10-26T14:21:50.437Z,22.07
2022-10-26T14:26:49.857Z,21.97
2022-10-26T14:31:50.289Z,21.73
2022-10-26T14:36:52.247Z,21.53
2022-10-26T14:42:00.186Z,21.59
2022-10-26T14:47:01.013Z,21.20
2022-10-26T14:52:09.052Z,21.18
2022-10-26T14:57:36.352Z,20.98
2022-10-26T15:02:36.076Z,20.85
2022-10-26T15:07:37.871Z,20.61
2022-10-26T15:12:37.545Z,20.65
2022-10-26T15:17:39.007Z,20.39
2022-10-26T15:22:46.343Z,20.23
2022-10-26T15:27:45.162Z,20.19
2022-10-26T15:32:45.687Z,20.06
2022-10-26T15:37:45.667Z,20.01
2022-10-26T15:42:49.769Z,19.74
2022-10-26T15:47:50.343Z,19.65
2022-10-26T15:52:52.223Z,19.72
2022-10-26T15:58:04.391Z,19.30
2022-10-26T16:03:05.794Z,19.36
2022-10-26T16:08:06.600Z,19.20
2022-10-26T16:13:30.907Z,19.13
2022-10-26T16:18:32.557Z,18.96
2022-10-26T16:23:35.780Z,18.86
2022-10-26T16:28:34.873Z,18.81
2022-10-26T16:33:38.061Z,18.79
2022-10-26T16:38:37.621Z,18.66
2022-10-26T16:43:40.886Z,18.48
2022-10-26T16:48:40.672Z,18.35
2022-10-26T16:53:41.999Z,18.15
2022-10-26T16:58:43.927Z,18.35
2022-10-26T17:03:46.004Z,18.15
2022-10-26T17:08:45.405Z,18.10
2022-10-26T17:13:48.126Z,18.13
2022-10-26T17:18:47.753Z,17.94
2022-10-26T17:23:50.816Z,17.81
2022-10-26T17:28:57.220Z,17.64
2022-10-26T17:34:16.897Z,17.83
2022-10-26T17:39:43.492Z,17.46
2022-10-26T17:45:13.990Z,17.56
2022-10-26T17:56:19.946Z,17.38
2022-10-26T18:01:30.459Z,16.99
2022-10-26T18:06:40.698Z,17.06
2022-10-26T18:11:59.487Z,16.94
2022-10-26T18:17:19.273Z,16.83
2022-10-26T18:22:30.512Z,16.86
2022-10-26T18:27:32.607Z,16.82
2022-10-26T18:32:42.408Z,16.68
2022-10-26T18:37:45.368Z,16.76
2022-10-26T18:42:50.015Z,16.54
2022-10-26T18:53:22.555Z,16.66
2022-10-26T18:58:47.283Z,16.44
2022-10-26T19:04:00.166Z,16.50
2022-10-26T19:09:19.871Z,16.18
2022-10-26T19:14:36.364Z,16.16
2022-10-26T19:19:54.967Z,16.11
2022-10-26T19:25:07.861Z,16.26
2022-10-26T19:30:25.143Z,15.67
2022-10-26T19:35:31.674Z,15.77
2022-10-26T19:40:48.507Z,15.89
2022-10-26T19:45:55.853Z,15.90
2022-10-26T19:51:12.764Z,15.97
2022-10-26T19:56:23.895Z,15.69
2022-10-26T20:01:41.906Z,15.83
2022-10-26T20:06:44.537Z,15.90
2022-10-26T20:12:01.169Z,15.61
2022-10-26T20:17:10.004Z,15.63
2022-10-26T20:22:23.900Z,15.68
2022-10-26T20:27:28.290Z,15.60
2022-10-26T20:32:26.986Z,15.54
2022-10-26T20:37:30.296Z,15.73
2022-10-26T20:42:33.399Z,15.26
2022-10-26T20:47:31.998Z,15.25
2022-10-26T20:53:05.213Z,15.05
2022-10-26T20:58:57.541Z,15.02
2022-10-26T21:04:02.876Z,15.10
2022-10-26T21:09:09.853Z,15.20
2022-10-26T21:14:12.843Z,15.31
2022-10-26T21:19:13.711Z,14.87
2022-10-26T21:24:50.106Z,15.01
2022-10-26T21:29:58.896Z,14.72
2022-10-26T21:35:37.199Z,14.56
2022-10-26T21:40:49.233Z,14.48
2022-10-26T21:51:52.817Z,14.55
2022-10-26T22:02:26.865Z,13.62
2022-10-26T22:07:34.506Z,13.66
2022-10-26T22:12:52.269Z,13.22
2022-10-26T22:17:58.068Z,13.78
2022-10-26T22:23:13.772Z,13.97
2022-10-26T22:28:38.556Z,13.85
2022-10-26T22:34:12.210Z,13.98
2022-10-26T22:39:31.243Z,14.18
2022-10-26T22:44:41.091Z,14.32
2022-10-26T22:49:49.203Z,14.38
2022-10-26T22:55:03.643Z,14.60
2022-10-26T23:00:06.895Z,14.43
2022-10-26T23:05:10.029Z,14.55
2022-10-26T23:10:20.009Z,14.55
2022-10-26T23:15:23.231Z,14.49
2022-10-26T23:20:37.687Z,14.36
2022-10-26T23:25:41.145Z,14.30
2022-10-26T23:30:42.835Z,14.50
2022-10-26T23:35:56.692Z,14.43
2022-10-26T23:40:58.769Z,14.35
2022-10-26T23:46:07.737Z,14.23
2022-10-26T23:51:10.370Z,14.25
2022-10-26T23:56:13.633Z,13.98
